Tolani, Arizona
Current Conditions -  °F | °C
As of 2:56 AM on Sunday 23 Nov 2014 (Local Time) from KINW Reporting Station
Clear Clear  
Wind Chill: 37°   Ceiling: Unl
Heat Index: 45°   Visibility: 10mi
Dew Point: 23°   Wind: 18mph
Humidity: 42%   Direction: 250°WSW
Pressure: 29.91"   Gusts: NA
Location:  35.1934°N, 110.361°W
Report Text: KINW 230956Z AUTO 25016KT 10SM CLR 07/M05 A2991 RMK AO2 SLP089 T00721050
Loading
Personal Weather Stations






























Interactive Weather Map New forecast layout! Learn more

10-Day Weather Forecast

Advertisements
Track Severe Weather on mobile